sensor_id;sensor_type;location;lat;lon;timestamp;pressure;altitude;pressure_sealevel;temperature;humidity
12468;BME280;57850;52.922;6.256;2022-11-20T00:01:29;101536.41;;;3.31;100.00
12468;BME280;57850;52.922;6.256;2022-11-20T00:03:56;101526.97;;;3.31;100.00
12468;BME280;57850;52.922;6.256;2022-11-20T00:06:24;101516.53;;;3.07;100.00
12468;BME280;57850;52.922;6.256;2022-11-20T00:08:54;101513.88;;;2.95;100.00
12468;BME280;57850;52.922;6.256;2022-11-20T00:11:22;101521.78;;;3.30;100.00
12468;BME280;57850;52.922;6.256;2022-11-20T00:13:51;101514.91;;;3.30;100.00
12468;BME280;57850;52.922;6.256;2022-11-20T00:16:22;101516.63;;;3.25;100.00
12468;BME280;57850;52.922;6.256;2022-11-20T00:18:55;101516.69;;;3.43;100.00
12468;BME280;57850;52.922;6.256;2022-11-20T00:21:23;101518.44;;;3.52;100.00
12468;BME280;57850;52.922;6.256;2022-11-20T00:23:52;101521.03;;;3.56;100.00
12468;BME280;57850;52.922;6.256;2022-11-20T00:26:21;101520.16;;;3.50;100.00
12468;BME280;57850;52.922;6.256;2022-11-20T00:28:51;101518.44;;;3.50;100.00
12468;BME280;57850;52.922;6.256;2022-11-20T00:31:19;101523.63;;;3.62;100.00
12468;BME280;57850;52.922;6.256;2022-11-20T00:33:47;101528.81;;;3.71;100.00
12468;BME280;57850;52.922;6.256;2022-11-20T00:36:16;101533.06;;;3.63;100.00
12468;BME280;57850;52.922;6.256;2022-11-20T00:38:43;101530.47;;;3.54;100.00
12468;BME280;57850;52.922;6.256;2022-11-20T00:41:12;101530.50;;;3.59;100.00
12468;BME280;57850;52.922;6.256;2022-11-20T00:43:39;101530.53;;;3.66;100.00
12468;BME280;57850;52.922;6.256;2022-11-20T00:46:07;101532.25;;;3.76;100.00
12468;BME280;57850;52.922;6.256;2022-11-20T00:48:35;101522.78;;;3.68;100.00
12468;BME280;57850;52.922;6.256;2022-11-20T00:51:02;101518.44;;;3.61;100.00
12468;BME280;57850;52.922;6.256;2022-11-20T00:53:29;101513.31;;;3.62;100.00
12468;BME280;57850;52.922;6.256;2022-11-20T00:55:58;101514.19;;;3.73;100.00
12468;BME280;57850;52.922;6.256;2022-11-20T00:58:28;101506.47;;;3.83;100.00
12468;BME280;57850;52.922;6.256;2022-11-20T01:00:59;101502.19;;;3.78;100.00
12468;BME280;57850;52.922;6.256;2022-11-20T01:03:26;101499.56;;;3.66;100.00
12468;BME280;57850;52.922;6.256;2022-11-20T01:05:54;101492.63;;;3.41;100.00
12468;BME280;57850;52.922;6.256;2022-11-20T01:08:25;101495.19;;;3.38;100.00
12468;BME280;57850;52.922;6.256;2022-11-20T01:10:51;101504.72;;;3.62;100.00
12468;BME280;57850;52.922;6.256;2022-11-20T01:13:18;101506.47;;;3.78;100.00
12468;BME280;57850;52.922;6.256;2022-11-20T01:16:03;101502.09;;;3.53;100.00
12468;BME280;57850;52.922;6.256;2022-11-20T01:18:29;101484.78;;;3.20;100.00
12468;BME280;57850;52.922;6.256;2022-11-20T01:21:01;101508.13;;;3.50;100.00
12468;BME280;57850;52.922;6.256;2022-11-20T01:23:31;101515.06;;;3.80;100.00
12468;BME280;57850;52.922;6.256;2022-11-20T01:26:00;101504.72;;;3.71;100.00
12468;BME280;57850;52.922;6.256;2022-11-20T01:28:26;101502.09;;;3.51;100.00
12468;BME280;57850;52.922;6.256;2022-11-20T01:30:54;101506.44;;;3.66;100.00
12468;BME280;57850;52.922;6.256;2022-11-20T01:33:21;101500.44;;;3.71;100.00
12468;BME280;57850;52.922;6.256;2022-11-20T01:35:48;101475.22;;;2.98;100.00
12468;BME280;57850;52.922;6.256;2022-11-20T01:38:16;101477.88;;;3.10;100.00
12468;BME280;57850;52.922;6.256;2022-11-20T01:40:43;101492.69;;;3.65;100.00
12468;BME280;57850;52.922;6.256;2022-11-20T01:43:14;101494.44;;;3.75;100.00
12468;BME280;57850;52.922;6.256;2022-11-20T01:46:15;101470.06;;;2.95;100.00
12468;BME280;57850;52.922;6.256;2022-11-20T01:48:48;101481.47;;;3.57;100.00
12468;BME280;57850;52.922;6.256;2022-11-20T01:51:23;101485.81;;;3.73;100.00
12468;BME280;57850;52.922;6.256;2022-11-20T01:53:53;101486.69;;;3.78;100.00
12468;BME280;57850;52.922;6.256;2022-11-20T01:56:22;101471.19;;;3.69;100.00
12468;BME280;57850;52.922;6.256;2022-11-20T01:58:52;101477.22;;;3.74;100.00
12468;BME280;57850;52.922;6.256;2022-11-20T02:01:21;101482.38;;;3.87;100.00
12468;BME280;57850;52.922;6.256;2022-11-20T02:03:48;101482.41;;;3.97;100.00
12468;BME280;57850;52.922;6.256;2022-11-20T02:06:19;101482.41;;;4.02;100.00
12468;BME280;57850;52.922;6.256;2022-11-20T02:08:48;101485.84;;;4.08;100.00
12468;BME280;57850;52.922;6.256;2022-11-20T02:11:16;101486.72;;;4.13;100.00
12468;BME280;57850;52.922;6.256;2022-11-20T02:13:42;101482.41;;;3.96;100.00
12468;BME280;57850;52.922;6.256;2022-11-20T02:16:10;101478.09;;;3.96;100.00
12468;BME280;57850;52.922;6.256;2022-11-20T02:18:38;101474.66;;;3.91;100.00
12468;BME280;57850;52.922;6.256;2022-11-20T02:21:09;101476.38;;;3.98;100.00
12468;BME280;57850;52.922;6.256;2022-11-20T02:23:39;101454.81;;;3.51;100.00
12468;BME280;57850;52.922;6.256;2022-11-20T02:26:13;101462.59;;;3.66;100.00
12468;BME280;57850;52.922;6.256;2022-11-20T02:28:40;101466.06;;;3.85;100.00
12468;BME280;57850;52.922;6.256;2022-11-20T02:31:07;101470.34;;;3.95;100.00
12468;BME280;57850;52.922;6.256;2022-11-20T02:33:34;101468.63;;;3.85;100.00
12468;BME280;57850;52.922;6.256;2022-11-20T02:36:01;101461.75;;;3.84;100.00
12468;BME280;57850;52.922;6.256;2022-11-20T02:38:27;101428.81;;;2.90;100.00
12468;BME280;57850;52.922;6.256;2022-11-20T02:40:54;101428.84;;;3.01;100.00
12468;BME280;57850;52.922;6.256;2022-11-20T02:43:23;101447.97;;;3.71;100.00
12468;BME280;57850;52.922;6.256;2022-11-20T02:45:49;101454.84;;;3.83;100.00
12468;BME280;57850;52.922;6.256;2022-11-20T02:48:16;101430.72;;;3.41;100.00
12468;BME280;57850;52.922;6.256;2022-11-20T02:50:42;101413.31;;;2.81;100.00
12468;BME280;57850;52.922;6.256;2022-11-20T02:53:09;101418.56;;;3.05;100.00
12468;BME280;57850;52.922;6.256;2022-11-20T02:55:36;101443.66;;;3.76;100.00
12468;BME280;57850;52.922;6.256;2022-11-20T02:58:02;101453.13;;;3.95;100.00
12468;BME280;57850;52.922;6.256;2022-11-20T03:00:30;101450.56;;;3.91;100.00
12468;BME280;57850;52.922;6.256;2022-11-20T03:02:57;101425.59;;;3.53;100.00
12468;BME280;57850;52.922;6.256;2022-11-20T03:05:24;101428.16;;;3.55;100.00
12468;BME280;57850;52.922;6.256;2022-11-20T03:07:51;101437.66;;;3.77;100.00
12468;BME280;57850;52.922;6.256;2022-11-20T03:10:17;101450.56;;;4.03;100.00
12468;BME280;57850;52.922;6.256;2022-11-20T03:12:44;101448.00;;;4.03;100.00
12468;BME280;57850;52.922;6.256;2022-11-20T03:15:11;101447.13;;;4.07;100.00
12468;BME280;57850;52.922;6.256;2022-11-20T03:17:39;101435.06;;;3.92;100.00
12468;BME280;57850;52.922;6.256;2022-11-20T03:20:07;101434.19;;;3.95;100.00
12468;BME280;57850;52.922;6.256;2022-11-20T03:22:34;101441.97;;;3.99;100.00
12468;BME280;57850;52.922;6.256;2022-11-20T03:25:00;101439.38;;;4.13;100.00
12468;BME280;57850;52.922;6.256;2022-11-20T03:27:31;101437.66;;;4.15;100.00
12468;BME280;57850;52.922;6.256;2022-11-20T03:29:58;101423.03;;;3.97;100.00
12468;BME280;57850;52.922;6.256;2022-11-20T03:32:25;101410.97;;;3.63;100.00
12468;BME280;57850;52.922;6.256;2022-11-20T03:34:52;101413.50;;;3.42;100.00
12468;BME280;57850;52.922;6.256;2022-11-20T03:37:19;101422.19;;;3.82;100.00
12468;BME280;57850;52.922;6.256;2022-11-20T03:39:46;101435.06;;;4.15;100.00
12468;BME280;57850;52.922;6.256;2022-11-20T03:42:13;101398.91;;;3.47;100.00
12468;BME280;57850;52.922;6.256;2022-11-20T03:44:53;101370.47;;;3.15;100.00
12468;BME280;57850;52.922;6.256;2022-11-20T03:47:23;101379.16;;;3.50;100.00
12468;BME280;57850;52.922;6.256;2022-11-20T03:49:49;101392.94;;;4.04;100.00
12468;BME280;57850;52.922;6.256;2022-11-20T03:52:18;101393.78;;;3.85;100.00
12468;BME280;57850;52.922;6.256;2022-11-20T03:54:44;101407.53;;;3.99;100.00
12468;BME280;57850;52.922;6.256;2022-11-20T03:57:11;101399.78;;;3.93;100.00
12468;BME280;57850;52.922;6.256;2022-11-20T03:59:38;101394.63;;;4.05;100.00
12468;BME280;57850;52.922;6.256;2022-11-20T04:02:04;101393.75;;;4.07;100.00
12468;BME280;57850;52.922;6.256;2022-11-20T04:04:31;101380.88;;;3.65;100.00
12468;BME280;57850;52.922;6.256;2022-11-20T04:06:57;101367.09;;;3.37;100.00
12468;BME280;57850;52.922;6.256;2022-11-20T04:09:25;101372.25;;;3.58;100.00
12468;BME280;57850;52.922;6.256;2022-11-20T04:11:52;101373.97;;;3.73;100.00
12468;BME280;57850;52.922;6.256;2022-11-20T04:14:18;101372.28;;;3.51;100.00
12468;BME280;57850;52.922;6.256;2022-11-20T04:16:46;101382.59;;;3.55;100.00
12468;BME280;57850;52.922;6.256;2022-11-20T04:19:14;101377.41;;;3.49;100.00
12468;BME280;57850;52.922;6.256;2022-11-20T04:21:41;101375.72;;;3.56;100.00
12468;BME280;57850;52.922;6.256;2022-11-20T04:24:08;101385.19;;;3.60;100.00
12468;BME280;57850;52.922;6.256;2022-11-20T04:26:37;101370.50;;;3.30;100.00
12468;BME280;57850;52.922;6.256;2022-11-20T04:29:04;101347.19;;;2.79;100.00
12468;BME280;57850;52.922;6.256;2022-11-20T04:31:32;101353.28;;;3.08;100.00
12468;BME280;57850;52.922;6.256;2022-11-20T04:34:00;101372.25;;;3.46;100.00
12468;BME280;57850;52.922;6.256;2022-11-20T04:36:28;101373.16;;;3.69;100.00
12468;BME280;57850;52.922;6.256;2022-11-20T04:38:55;101361.91;;;3.27;100.00
12468;BME280;57850;52.922;6.256;2022-11-20T04:41:24;101363.66;;;3.38;100.00
12468;BME280;57850;52.922;6.256;2022-11-20T04:43:54;101364.50;;;3.48;100.00
12468;BME280;57850;52.922;6.256;2022-11-20T04:46:25;101361.97;;;3.51;100.00
12468;BME280;57850;52.922;6.256;2022-11-20T04:48:52;101370.56;;;3.62;100.00
12468;BME280;57850;52.922;6.256;2022-11-20T04:51:19;101366.25;;;3.73;100.00
12468;BME280;57850;52.922;6.256;2022-11-20T04:53:47;101347.31;;;3.19;100.00
12468;BME280;57850;52.922;6.256;2022-11-20T04:56:14;101332.63;;;3.05;100.00
12468;BME280;57850;52.922;6.256;2022-11-20T04:58:41;101330.91;;;3.01;100.00
12468;BME280;57850;52.922;6.256;2022-11-20T05:01:11;101341.31;;;3.43;100.00
12468;BME280;57850;52.922;6.256;2022-11-20T05:03:38;101355.91;;;3.76;100.00
12468;BME280;57850;52.922;6.256;2022-11-20T05:06:06;101357.66;;;3.78;100.00
12468;BME280;57850;52.922;6.256;2022-11-20T05:08:33;101334.41;;;3.27;100.00
12468;BME280;57850;52.922;6.256;2022-11-20T05:11:01;101324.09;;;3.21;100.00
12468;BME280;57850;52.922;6.256;2022-11-20T05:13:27;101304.22;;;2.75;100.00
12468;BME280;57850;52.922;6.256;2022-11-20T05:15:54;101295.66;;;2.79;100.00
12468;BME280;57850;52.922;6.256;2022-11-20T05:18:22;101273.22;;;2.49;100.00
12468;BME280;57850;52.922;6.256;2022-11-20T05:20:54;101269.84;;;2.68;100.00
12468;BME280;57850;52.922;6.256;2022-11-20T05:23:21;101285.38;;;3.01;100.00
12468;BME280;57850;52.922;6.256;2022-11-20T05:25:51;101286.25;;;3.08;100.00
12468;BME280;57850;52.922;6.256;2022-11-20T05:28:18;101292.28;;;3.33;100.00
12468;BME280;57850;52.922;6.256;2022-11-20T05:30:44;101295.75;;;3.59;100.00
12468;BME280;57850;52.922;6.256;2022-11-20T05:33:11;101288.00;;;3.39;100.00
12468;BME280;57850;52.922;6.256;2022-11-20T05:35:39;101275.03;;;2.80;100.00
12468;BME280;57850;52.922;6.256;2022-11-20T05:38:06;101290.56;;;3.09;100.00
12468;BME280;57850;52.922;6.256;2022-11-20T05:40:32;101299.19;;;3.47;100.00
12468;BME280;57850;52.922;6.256;2022-11-20T05:42:59;101318.97;;;3.66;100.00
12468;BME280;57850;52.922;6.256;2022-11-20T05:45:26;101312.06;;;3.81;100.00
12468;BME280;57850;52.922;6.256;2022-11-20T05:47:52;101315.50;;;3.81;100.00
12468;BME280;57850;52.922;6.256;2022-11-20T05:50:19;101315.50;;;3.78;100.00
12468;BME280;57850;52.922;6.256;2022-11-20T05:52:47;101324.97;;;3.88;100.00
12468;BME280;57850;52.922;6.256;2022-11-20T05:55:14;101325.81;;;3.93;100.00
12468;BME280;57850;52.922;6.256;2022-11-20T05:57:40;101324.13;;;3.82;100.00
12468;BME280;57850;52.922;6.256;2022-11-20T06:00:08;101324.97;;;3.84;100.00
12468;BME280;57850;52.922;6.256;2022-11-20T06:02:35;101332.69;;;3.90;100.00
12468;BME280;57850;52.922;6.256;2022-11-20T06:05:02;101331.00;;;3.81;100.00
12468;BME280;57850;52.922;6.256;2022-11-20T06:07:28;101337.00;;;3.89;100.00
12468;BME280;57850;52.922;6.256;2022-11-20T06:09:56;101337.00;;;3.97;100.00
12468;BME280;57850;52.922;6.256;2022-11-20T06:12:25;101343.00;;;4.02;100.00
12468;BME280;57850;52.922;6.256;2022-11-20T06:14:51;101340.44;;;3.97;100.00
12468;BME280;57850;52.922;6.256;2022-11-20T06:17:21;101340.44;;;3.97;100.00
12468;BME280;57850;52.922;6.256;2022-11-20T06:19:47;101338.72;;;3.93;100.00
12468;BME280;57850;52.922;6.256;2022-11-20T06:22:14;101336.16;;;3.78;100.00
12468;BME280;57850;52.922;6.256;2022-11-20T06:24:42;101334.41;;;3.89;100.00
12468;BME280;57850;52.922;6.256;2022-11-20T06:27:11;101335.28;;;3.74;100.00
12468;BME280;57850;52.922;6.256;2022-11-20T06:29:37;101335.31;;;3.59;100.00
12468;BME280;57850;52.922;6.256;2022-11-20T06:32:04;101332.72;;;3.65;100.00
12468;BME280;57850;52.922;6.256;2022-11-20T06:34:30;101320.66;;;3.58;100.00
12468;BME280;57850;52.922;6.256;2022-11-20T06:36:57;101340.47;;;3.85;100.00
12468;BME280;57850;52.922;6.256;2022-11-20T06:39:23;101331.88;;;3.69;100.00
12468;BME280;57850;52.922;6.256;2022-11-20T06:41:51;101332.72;;;3.77;100.00
12468;BME280;57850;52.922;6.256;2022-11-20T06:44:18;101328.41;;;3.64;100.00
12468;BME280;57850;52.922;6.256;2022-11-20T06:46:45;101336.13;;;3.90;100.00
12468;BME280;57850;52.922;6.256;2022-11-20T06:49:12;101322.38;;;3.58;100.00
12468;BME280;57850;52.922;6.256;2022-11-20T06:51:38;101334.44;;;3.72;100.00
12468;BME280;57850;52.922;6.256;2022-11-20T06:54:05;101339.56;;;3.89;100.00
12468;BME280;57850;52.922;6.256;2022-11-20T06:56:31;101324.09;;;3.57;100.00
12468;BME280;57850;52.922;6.256;2022-11-20T06:58:58;101317.22;;;3.32;100.00
12468;BME280;57850;52.922;6.256;2022-11-20T07:01:26;101314.66;;;3.40;100.00
12468;BME280;57850;52.922;6.256;2022-11-20T07:03:52;101322.41;;;3.35;100.00
12468;BME280;57850;52.922;6.256;2022-11-20T07:06:19;101319.81;;;3.28;100.00
12468;BME280;57850;52.922;6.256;2022-11-20T07:08:45;101318.06;;;3.17;100.00
12468;BME280;57850;52.922;6.256;2022-11-20T07:11:12;101297.41;;;2.90;100.00
12468;BME280;57850;52.922;6.256;2022-11-20T07:13:39;101296.50;;;2.75;100.00
12468;BME280;57850;52.922;6.256;2022-11-20T07:16:07;101306.84;;;2.90;100.00
12468;BME280;57850;52.922;6.256;2022-11-20T07:18:35;101313.78;;;3.22;100.00
12468;BME280;57850;52.922;6.256;2022-11-20T07:21:03;101312.88;;;2.93;100.00
12468;BME280;57850;52.922;6.256;2022-11-20T07:23:30;101307.72;;;2.96;100.00
12468;BME280;57850;52.922;6.256;2022-11-20T07:25:57;101308.53;;;2.74;100.00
12468;BME280;57850;52.922;6.256;2022-11-20T07:28:23;101311.16;;;2.98;100.00
12468;BME280;57850;52.922;6.256;2022-11-20T07:30:51;101306.84;;;2.96;100.00
12468;BME280;57850;52.922;6.256;2022-11-20T07:33:17;101303.44;;;3.00;100.00
12468;BME280;57850;52.922;6.256;2022-11-20T07:35:45;101303.47;;;3.22;100.00
12468;BME280;57850;52.922;6.256;2022-11-20T07:38:12;101298.28;;;3.16;100.00
12468;BME280;57850;52.922;6.256;2022-11-20T07:40:39;101293.13;;;3.09;100.00
12468;BME280;57850;52.922;6.256;2022-11-20T07:43:05;101293.09;;;2.98;100.00
12468;BME280;57850;52.922;6.256;2022-11-20T07:45:32;101290.50;;;2.80;100.00
12468;BME280;57850;52.922;6.256;2022-11-20T07:47:59;101285.34;;;2.83;100.00
12468;BME280;57850;52.922;6.256;2022-11-20T07:50:25;101279.31;;;2.69;100.00
12468;BME280;57850;52.922;6.256;2022-11-20T07:53:00;101261.16;;;2.39;100.00
12468;BME280;57850;52.922;6.256;2022-11-20T07:55:26;101261.16;;;2.39;100.00
12468;BME280;57850;52.922;6.256;2022-11-20T07:57:54;101239.66;;;2.19;100.00
12468;BME280;57850;52.922;6.256;2022-11-20T08:00:21;101242.19;;;2.14;100.00
12468;BME280;57850;52.922;6.256;2022-11-20T08:02:48;101246.59;;;2.32;100.00
12468;BME280;57850;52.922;6.256;2022-11-20T08:05:15;101251.69;;;2.27;100.00
12468;BME280;57850;52.922;6.256;2022-11-20T08:07:42;101271.56;;;2.64;100.00
12468;BME280;57850;52.922;6.256;2022-11-20T08:10:12;101330.97;;;3.86;100.00
12468;BME280;57850;52.922;6.256;2022-11-20T08:12:43;101349.00;;;4.17;100.00
12468;BME280;57850;52.922;6.256;2022-11-20T08:15:28;101346.41;;;4.25;100.00
12468;BME280;57850;52.922;6.256;2022-11-20T08:17:59;101333.47;;;4.31;100.00
12468;BME280;57850;52.922;6.256;2022-11-20T08:20:26;101339.50;;;4.27;100.00
12468;BME280;57850;52.922;6.256;2022-11-20T08:22:52;101325.81;;;4.04;100.00
12468;BME280;57850;52.922;6.256;2022-11-20T08:25:24;101324.09;;;3.94;100.00
12468;BME280;57850;52.922;6.256;2022-11-20T08:27:51;101322.38;;;4.00;100.00
12468;BME280;57850;52.922;6.256;2022-11-20T08:30:18;101336.81;;;4.54;100.00
12468;BME280;57850;52.922;6.256;2022-11-20T08:32:44;101331.63;;;4.66;100.00
12468;BME280;57850;52.922;6.256;2022-11-20T08:35:11;101320.50;;;4.46;100.00
12468;BME280;57850;52.922;6.256;2022-11-20T08:37:37;101326.41;;;4.74;100.00
12468;BME280;57850;52.922;6.256;2022-11-20T08:40:08;101363.63;;;5.84;100.00
12468;BME280;57850;52.922;6.256;2022-11-20T08:42:36;101358.78;;;6.42;100.00
12468;BME280;57850;52.922;6.256;2022-11-20T08:45:03;101348.69;;;6.16;100.00
12468;BME280;57850;52.922;6.256;2022-11-20T08:47:30;101340.19;;;6.02;100.00
12468;BME280;57850;52.922;6.256;2022-11-20T08:49:57;101314.06;;;5.26;100.00
12468;BME280;57850;52.922;6.256;2022-11-20T08:52:24;101355.47;;;7.01;100.00
12468;BME280;57850;52.922;6.256;2022-11-20T08:54:51;101353.72;;;7.61;100.00
12468;BME280;57850;52.922;6.256;2022-11-20T08:57:18;101326.94;;;7.58;100.00
12468;BME280;57850;52.922;6.256;2022-11-20T08:59:46;101293.91;;;6.46;100.00
12468;BME280;57850;52.922;6.256;2022-11-20T09:02:12;101331.56;;;7.39;100.00
12468;BME280;57850;52.922;6.256;2022-11-20T09:04:39;101316.09;;;7.31;100.00
12468;BME280;57850;52.922;6.256;2022-11-20T09:07:05;101291.81;;;7.35;100.00
12468;BME280;57850;52.922;6.256;2022-11-20T09:09:32;101302.72;;;7.55;100.00
12468;BME280;57850;52.922;6.256;2022-11-20T09:11:58;101314.94;;;8.87;100.00
12468;BME280;57850;52.922;6.256;2022-11-20T09:14:25;101281.72;;;8.99;100.00
12468;BME280;57850;52.922;6.256;2022-11-20T09:16:55;101284.25;;;8.63;100.00
12468;BME280;57850;52.922;6.256;2022-11-20T09:19:23;101262.06;;;8.02;100.00
12468;BME280;57850;52.922;6.256;2022-11-20T09:21:50;101276.06;;;8.81;100.00
12468;BME280;57850;52.922;6.256;2022-11-20T09:24:19;101257.19;;;7.84;100.00
12468;BME280;57850;52.922;6.256;2022-11-20T09:26:47;101264.88;;;7.91;100.00
12468;BME280;57850;52.922;6.256;2022-11-20T09:29:13;101324.59;;;8.83;100.00
12468;BME280;57850;52.922;6.256;2022-11-20T09:31:40;101318.44;;;10.29;100.00
12468;BME280;57850;52.922;6.256;2022-11-20T09:34:08;101272.38;;;9.28;100.00
12468;BME280;57850;52.922;6.256;2022-11-20T09:36:35;101310.88;;;10.18;100.00
12468;BME280;57850;52.922;6.256;2022-11-20T09:39:01;101275.44;;;9.45;100.00
12468;BME280;57850;52.922;6.256;2022-11-20T09:41:40;101273.09;;;10.00;100.00
12468;BME280;57850;52.922;6.256;2022-11-20T09:44:23;101233.81;;;9.08;100.00
12468;BME280;57850;52.922;6.256;2022-11-20T09:46:55;101232.81;;;10.72;98.98
12468;BME280;57850;52.922;6.256;2022-11-20T09:49:36;101191.50;;;10.85;95.78
12468;BME280;57850;52.922;6.256;2022-11-20T09:52:14;101248.31;;;12.08;97.22
12468;BME280;57850;52.922;6.256;2022-11-20T09:54:44;101247.19;;;11.39;97.01
12468;BME280;57850;52.922;6.256;2022-11-20T09:57:12;101223.59;;;12.16;96.27
12468;BME280;57850;52.922;6.256;2022-11-20T09:59:42;101217.38;;;12.19;95.20
12468;BME280;57850;52.922;6.256;2022-11-20T10:02:16;101258.75;;;14.05;95.40
12468;BME280;57850;52.922;6.256;2022-11-20T10:04:53;101206.72;;;14.34;92.63
12468;BME280;57850;52.922;6.256;2022-11-20T10:07:26;101173.69;;;14.47;91.30
12468;BME280;57850;52.922;6.256;2022-11-20T10:09:56;101188.84;;;13.65;91.31
12468;BME280;57850;52.922;6.256;2022-11-20T10:12:29;101167.63;;;14.47;90.17
12468;BME280;57850;52.922;6.256;2022-11-20T10:15:10;101120.97;;;15.22;87.77
12468;BME280;57850;52.922;6.256;2022-11-20T10:17:58;101128.00;;;15.39;87.28
12468;BME280;57850;52.922;6.256;2022-11-20T10:20:35;101109.91;;;15.33;85.87
12468;BME280;57850;52.922;6.256;2022-11-20T10:26:05;101098.06;;;15.07;85.00
12468;BME280;57850;52.922;6.256;2022-11-20T10:28:48;101102.50;;;13.79;85.65
12468;BME280;57850;52.922;6.256;2022-11-20T10:31:30;100996.34;;;13.87;81.40
12468;BME280;57850;52.922;6.256;2022-11-20T10:34:02;101005.75;;;12.13;82.41
12468;BME280;57850;52.922;6.256;2022-11-20T10:36:34;101047.25;;;12.64;83.36
12468;BME280;57850;52.922;6.256;2022-11-20T10:39:06;101056.28;;;11.44;84.58
12468;BME280;57850;52.922;6.256;2022-11-20T10:41:40;101045.94;;;10.40;85.63
12468;BME280;57850;52.922;6.256;2022-11-20T10:44:12;101030.81;;;11.02;85.16
12468;BME280;57850;52.922;6.256;2022-11-20T10:47:00;100909.13;;;10.98;81.00
12468;BME280;57850;52.922;6.256;2022-11-20T10:49:27;100960.88;;;12.02;82.63
12468;BME280;57850;52.922;6.256;2022-11-20T10:52:01;100977.09;;;10.46;83.71
12468;BME280;57850;52.922;6.256;2022-11-20T10:54:36;100996.56;;;10.36;84.15
12468;BME280;57850;52.922;6.256;2022-11-20T10:57:10;100989.94;;;11.24;82.63
12468;BME280;57850;52.922;6.256;2022-11-20T11:02:41;100971.00;;;11.19;82.72
12468;BME280;57850;52.922;6.256;2022-11-20T11:05:18;101025.84;;;10.95;85.05
12468;BME280;57850;52.922;6.256;2022-11-20T11:07:50;100952.09;;;10.65;81.91
12468;BME280;57850;52.922;6.256;2022-11-20T11:10:23;100964.31;;;12.24;81.52
12468;BME280;57850;52.922;6.256;2022-11-20T11:12:50;101006.91;;;12.89;82.68
12468;BME280;57850;52.922;6.256;2022-11-20T11:15:26;100914.44;;;11.63;81.36
12468;BME280;57850;52.922;6.256;2022-11-20T11:17:53;100930.06;;;11.65;80.58
12468;BME280;57850;52.922;6.256;2022-11-20T11:20:22;100985.38;;;11.99;83.22
12468;BME280;57850;52.922;6.256;2022-11-20T11:22:52;101042.34;;;12.13;85.04
12468;BME280;57850;52.922;6.256;2022-11-20T11:25:26;101043.28;;;11.90;85.13
12468;BME280;57850;52.922;6.256;2022-11-20T11:27:57;101005.09;;;11.40;84.01
12468;BME280;57850;52.922;6.256;2022-11-20T11:30:26;101130.13;;;9.56;88.40
12468;BME280;57850;52.922;6.256;2022-11-20T11:33:03;101108.66;;;9.48;87.80
12468;BME280;57850;52.922;6.256;2022-11-20T11:35:31;101102.75;;;9.41;87.94
12468;BME280;57850;52.922;6.256;2022-11-20T11:38:05;101009.19;;;10.21;85.11
12468;BME280;57850;52.922;6.256;2022-11-20T11:40:35;101010.72;;;9.42;85.44
12468;BME280;57850;52.922;6.256;2022-11-20T11:43:05;101023.59;;;8.85;86.38
12468;BME280;57850;52.922;6.256;2022-11-20T11:45:53;101035.31;;;9.32;87.16
12468;BME280;57850;52.922;6.256;2022-11-20T11:48:20;101031.91;;;9.89;87.48
12468;BME280;57850;52.922;6.256;2022-11-20T11:50:48;101003.97;;;10.21;86.41
12468;BME280;57850;52.922;6.256;2022-11-20T11:53:18;101032.16;;;10.89;86.44
12468;BME280;57850;52.922;6.256;2022-11-20T11:55:54;101032.22;;;12.05;86.10
12468;BME280;57850;52.922;6.256;2022-11-20T11:58:40;101018.06;;;12.09;86.44
12468;BME280;57850;52.922;6.256;2022-11-20T12:01:20;100924.91;;;12.07;82.90
12468;BME280;57850;52.922;6.256;2022-11-20T12:04:00;100836.00;;;13.03;79.90
12468;BME280;57850;52.922;6.256;2022-11-20T12:06:31;100918.91;;;10.44;83.55
12468;BME280;57850;52.922;6.256;2022-11-20T12:09:04;100920.91;;;10.09;82.92
12468;BME280;57850;52.922;6.256;2022-11-20T12:11:34;100880.75;;;8.76;82.71
12468;BME280;57850;52.922;6.256;2022-11-20T12:14:11;100937.56;;;8.59;84.51
12468;BME280;57850;52.922;6.256;2022-11-20T12:16:40;100952.03;;;8.71;84.88
12468;BME280;57850;52.922;6.256;2022-11-20T12:19:10;100937.16;;;8.74;84.95
12468;BME280;57850;52.922;6.256;2022-11-20T12:21:46;100979.59;;;9.67;85.48
12468;BME280;57850;52.922;6.256;2022-11-20T12:24:34;100960.34;;;8.83;85.87
12468;BME280;57850;52.922;6.256;2022-11-20T12:27:21;100991.41;;;9.79;86.56
12468;BME280;57850;52.922;6.256;2022-11-20T12:29:57;100980.34;;;9.43;86.01
12468;BME280;57850;52.922;6.256;2022-11-20T12:32:51;100998.25;;;8.59;87.11
12468;BME280;57850;52.922;6.256;2022-11-20T12:35:35;100983.91;;;8.77;86.96
12468;BME280;57850;52.922;6.256;2022-11-20T12:38:22;100999.75;;;7.97;88.27
12468;BME280;57850;52.922;6.256;2022-11-20T12:40:59;100982.84;;;8.15;88.64
12468;BME280;57850;52.922;6.256;2022-11-20T12:43:31;101005.13;;;8.25;89.72
12468;BME280;57850;52.922;6.256;2022-11-20T12:46:28;100951.13;;;8.38;88.40
12468;BME280;57850;52.922;6.256;2022-11-20T12:49:11;100986.03;;;8.63;89.75
12468;BME280;57850;52.922;6.256;2022-11-20T12:51:54;100992.03;;;8.97;90.04
12468;BME280;57850;52.922;6.256;2022-11-20T12:54:49;100982.41;;;7.98;91.61
12468;BME280;57850;52.922;6.256;2022-11-20T12:57:26;101002.28;;;8.71;92.34
12468;BME280;57850;52.922;6.256;2022-11-20T13:00:12;100956.06;;;7.38;92.25
12468;BME280;57850;52.922;6.256;2022-11-20T13:02:54;100972.63;;;8.44;92.65
12468;BME280;57850;52.922;6.256;2022-11-20T13:05:31;100992.00;;;8.67;93.16
12468;BME280;57850;52.922;6.256;2022-11-20T13:08:03;100954.53;;;7.68;91.92
12468;BME280;57850;52.922;6.256;2022-11-20T13:10:34;100955.19;;;7.39;93.49